createdAt,value
2023-04-25T00:02:44.499Z,5.30
2023-04-25T00:07:46.337Z,5.20
2023-04-25T00:12:48.452Z,4.90
2023-04-25T00:17:49.940Z,5.07
2023-04-25T00:22:53.067Z,4.60
2023-04-25T00:27:54.711Z,5.93
2023-04-25T00:32:55.949Z,4.43
2023-04-25T00:37:57.542Z,4.87
2023-04-25T00:42:59.166Z,5.03
2023-04-25T00:48:00.607Z,4.60
2023-04-25T00:53:03.652Z,4.83
2023-04-25T00:58:05.203Z,5.93
2023-04-25T01:03:06.764Z,5.30
2023-04-25T01:08:08.231Z,5.37
2023-04-25T01:13:09.928Z,5.37
2023-04-25T01:18:12.219Z,5.50
2023-04-25T01:23:14.476Z,5.57
2023-04-25T01:28:16.395Z,5.43
2023-04-25T01:33:21.331Z,6.20
2023-04-25T01:38:22.864Z,5.80
2023-04-25T01:43:24.239Z,4.97
2023-04-25T01:48:25.558Z,5.73
2023-04-25T01:53:27.230Z,5.73
2023-04-25T01:58:28.722Z,7.07
2023-04-25T02:03:46.410Z,5.37
2023-04-25T02:08:57.177Z,6.23
2023-04-25T02:13:59.435Z,5.83
2023-04-25T02:19:18.159Z,6.20
2023-04-25T02:24:19.373Z,5.60
2023-04-25T02:29:20.835Z,6.37
2023-04-25T02:34:22.152Z,5.80
2023-04-25T02:39:25.385Z,5.73
2023-04-25T02:44:26.805Z,5.67
2023-04-25T02:49:28.227Z,7.07
2023-04-25T02:54:29.937Z,7.77
2023-04-25T02:59:32.553Z,6.17
2023-04-25T03:04:33.904Z,6.03
2023-04-25T03:09:35.302Z,7.73
2023-04-25T03:14:37.805Z,6.20
2023-04-25T03:19:39.645Z,6.03
2023-04-25T03:24:41.188Z,6.93
2023-04-25T03:29:42.547Z,5.27
2023-04-25T03:34:44.777Z,5.97
2023-04-25T03:39:46.612Z,5.03
2023-04-25T03:44:49.224Z,5.50
2023-04-25T03:49:52.068Z,4.63
2023-04-25T03:54:56.918Z,5.33
2023-04-25T04:00:00.455Z,4.90
2023-04-25T04:05:04.739Z,4.63
2023-04-25T04:10:10.525Z,5.53
2023-04-25T04:15:14.281Z,5.10
2023-04-25T04:20:18.358Z,5.10
2023-04-25T04:25:20.266Z,4.73
2023-04-25T04:30:46.304Z,4.27
2023-04-25T04:35:47.696Z,5.03
2023-04-25T04:40:50.595Z,4.53
2023-04-25T04:46:06.486Z,5.17
2023-04-25T04:51:16.723Z,4.77
2023-04-25T04:56:38.629Z,5.37
2023-04-25T05:01:58.428Z,5.47
2023-04-25T05:07:22.794Z,5.13
2023-04-25T05:12:45.071Z,5.10
2023-04-25T05:17:52.858Z,5.17
2023-04-25T05:23:08.121Z,6.07
2023-04-25T05:28:18.352Z,5.50
2023-04-25T05:33:39.797Z,5.63
2023-04-25T05:38:42.320Z,6.37
2023-04-25T05:43:50.175Z,7.33
2023-04-25T05:48:58.866Z,6.20
2023-04-25T05:54:26.400Z,6.37
2023-04-25T05:59:29.693Z,7.57
2023-04-25T06:04:32.074Z,7.23
2023-04-25T06:09:34.828Z,7.00
2023-04-25T06:14:36.110Z,7.17
2023-04-25T06:19:37.428Z,7.03
2023-04-25T06:24:39.313Z,6.83
2023-04-25T06:29:41.475Z,6.43
2023-04-25T06:34:43.669Z,5.53
2023-04-25T06:39:45.047Z,7.10
2023-04-25T06:44:46.629Z,7.10
2023-04-25T06:49:49.005Z,6.83
2023-04-25T06:54:50.509Z,7.50
2023-04-25T07:00:09.907Z,7.07
2023-04-25T07:05:12.576Z,7.17
2023-04-25T07:10:14.151Z,6.90
2023-04-25T07:15:15.529Z,5.70
2023-04-25T07:20:20.543Z,5.57
2023-04-25T07:25:22.264Z,5.93
2023-04-25T07:30:24.508Z,5.03
2023-04-25T07:35:26.076Z,4.97
2023-04-25T07:40:27.511Z,4.13
2023-04-25T07:45:34.562Z,4.17
2023-04-25T07:50:36.866Z,2.97
2023-04-25T07:55:40.385Z,2.83
2023-04-25T08:00:47.228Z,3.70
2023-04-25T08:06:13.218Z,3.70
2023-04-25T08:11:24.468Z,3.40
2023-04-25T08:16:28.038Z,3.43
2023-04-25T08:21:29.996Z,2.43
2023-04-25T08:26:35.153Z,3.70
2023-04-25T08:31:37.532Z,4.20
2023-04-25T08:36:40.530Z,4.47
2023-04-25T08:42:08.047Z,3.60
2023-04-25T08:47:10.127Z,2.87
2023-04-25T08:52:22.971Z,3.30
2023-04-25T08:57:25.407Z,4.17
2023-04-25T09:02:27.156Z,3.00
2023-04-25T09:07:28.925Z,3.10
2023-04-25T09:12:31.449Z,3.30
2023-04-25T09:17:33.709Z,3.53
2023-04-25T09:22:37.727Z,2.23
2023-04-25T09:27:53.314Z,2.60
2023-04-25T09:33:08.175Z,2.80
2023-04-25T09:38:15.262Z,2.97
2023-04-25T09:43:46.061Z,2.30
2023-04-25T09:48:51.593Z,2.70
2023-04-25T09:54:00.996Z,2.00
2023-04-25T09:59:16.710Z,1.97
2023-04-25T10:04:26.738Z,2.47
2023-04-25T10:09:36.753Z,2.33
2023-04-25T10:14:38.770Z,2.13
2023-04-25T10:19:40.233Z,1.80
2023-04-25T10:24:42.190Z,1.95
2023-04-25T10:29:44.174Z,2.47
2023-04-25T10:34:48.884Z,2.42
2023-04-25T10:39:50.328Z,1.75
2023-04-25T10:45:03.511Z,2.00
2023-04-25T10:50:08.118Z,1.60
2023-04-25T10:55:09.801Z,2.15
2023-04-25T11:00:15.488Z,1.77
2023-04-25T11:05:51.108Z,1.70
2023-04-25T11:10:59.416Z,2.30
2023-04-25T11:16:12.004Z,2.40
2023-04-25T11:21:14.853Z,2.53
2023-04-25T11:26:16.665Z,2.60
2023-04-25T11:31:21.853Z,2.00
2023-04-25T11:36:24.627Z,1.77
2023-04-25T11:41:26.637Z,1.40
2023-04-25T11:46:28.124Z,1.63
2023-04-25T11:51:30.555Z,1.60
2023-04-25T11:56:32.877Z,1.53
2023-04-25T12:01:38.875Z,1.30
2023-04-25T12:06:42.279Z,1.70
2023-04-25T12:11:54.150Z,1.25
2023-04-25T12:16:58.063Z,1.08
2023-04-25T12:22:01.144Z,1.00
2023-04-25T12:27:04.587Z,0.90
2023-04-25T12:32:06.336Z,1.33
2023-04-25T12:37:07.748Z,0.80
2023-04-25T12:42:11.884Z,0.90
2023-04-25T12:47:13.150Z,1.23
2023-04-25T12:52:15.049Z,1.10
2023-04-25T12:57:16.581Z,1.23
2023-04-25T13:02:17.941Z,1.37
2023-04-25T13:07:19.455Z,1.30
2023-04-25T13:12:20.636Z,1.40
2023-04-25T13:17:22.237Z,1.33
2023-04-25T13:22:23.948Z,1.20
2023-04-25T13:27:25.295Z,1.33
2023-04-25T13:32:27.069Z,1.30
2023-04-25T13:37:30.116Z,1.40
2023-04-25T13:42:32.351Z,1.42
2023-04-25T13:47:35.159Z,1.20
2023-04-25T13:52:36.823Z,1.67
2023-04-25T13:57:39.921Z,1.10
2023-04-25T14:02:42.486Z,0.90
2023-04-25T14:07:43.878Z,0.88
2023-04-25T14:12:45.290Z,1.33
2023-04-25T14:17:48.572Z,1.00
2023-04-25T14:22:49.929Z,1.23
2023-04-25T14:27:51.221Z,1.37
2023-04-25T14:32:52.675Z,1.55
2023-04-25T14:37:54.391Z,0.95
2023-04-25T14:42:55.733Z,1.25
2023-04-25T14:47:57.267Z,0.90
2023-04-25T14:53:00.791Z,1.13
2023-04-25T14:58:02.300Z,1.17
2023-04-25T15:03:04.498Z,0.88
2023-04-25T15:08:06.307Z,1.40
2023-04-25T15:13:07.856Z,1.02
2023-04-25T15:18:09.316Z,1.10
2023-04-25T15:23:10.662Z,1.30
2023-04-25T15:28:14.077Z,1.10
2023-04-25T15:33:15.453Z,1.00
2023-04-25T15:38:16.784Z,1.30
2023-04-25T15:43:18.134Z,1.00
2023-04-25T15:48:19.560Z,0.87
2023-04-25T15:53:21.239Z,0.93
2023-04-25T15:58:22.469Z,1.03
2023-04-25T16:03:24.059Z,0.70
2023-04-25T16:08:25.697Z,1.30
2023-04-25T16:13:27.124Z,1.10
2023-04-25T16:18:28.554Z,1.37
2023-04-25T16:23:30.637Z,0.90
2023-04-25T16:28:32.079Z,1.37
2023-04-25T16:33:33.931Z,0.90
2023-04-25T16:38:35.410Z,1.20
2023-04-25T16:43:39.416Z,1.20
2023-04-25T16:48:40.776Z,1.27
2023-04-25T16:53:43.069Z,1.47
2023-04-25T16:58:44.440Z,1.17
2023-04-25T17:03:46.790Z,1.40
2023-04-25T17:08:48.136Z,1.37
2023-04-25T17:13:50.367Z,1.27
2023-04-25T17:18:51.966Z,1.50
2023-04-25T17:23:53.550Z,1.27
2023-04-25T17:28:55.142Z,1.30
2023-04-25T17:33:56.981Z,0.90
2023-04-25T17:38:58.346Z,1.30
2023-04-25T17:43:59.906Z,1.50
2023-04-25T17:49:01.353Z,1.23
2023-04-25T17:54:03.370Z,1.27
2023-04-25T17:59:04.827Z,1.20
2023-04-25T18:04:06.349Z,1.40
2023-04-25T18:09:15.246Z,1.53
2023-04-25T18:14:16.911Z,1.40
2023-04-25T18:19:20.729Z,1.63
2023-04-25T18:24:26.294Z,1.50
2023-04-25T18:34:32.366Z,1.33
2023-04-25T18:39:33.596Z,1.60
2023-04-25T18:44:39.134Z,1.80
2023-04-25T18:49:40.429Z,1.90
2023-04-25T18:54:42.055Z,1.50
2023-04-25T18:59:45.388Z,1.40
2023-04-25T19:04:47.188Z,1.37
2023-04-25T19:09:48.738Z,1.23
2023-04-25T19:14:50.317Z,1.60
2023-04-25T19:19:51.744Z,1.23
2023-04-25T19:25:02.994Z,1.73
2023-04-25T19:30:11.459Z,2.30
2023-04-25T19:35:13.595Z,1.77
2023-04-25T19:40:15.956Z,1.93
2023-04-25T19:45:17.569Z,1.80
2023-04-25T19:50:20.888Z,1.70
2023-04-25T19:55:22.773Z,1.57
2023-04-25T20:00:24.473Z,1.93
2023-04-25T20:05:26.725Z,2.07
2023-04-25T20:10:28.220Z,2.27
2023-04-25T20:15:29.575Z,2.40
2023-04-25T20:20:30.843Z,2.33
2023-04-25T20:25:32.578Z,2.57
2023-04-25T20:30:33.910Z,2.60
2023-04-25T20:35:36.158Z,2.87
2023-04-25T20:40:37.771Z,3.03
2023-04-25T20:45:39.461Z,3.30
2023-04-25T20:50:41.211Z,3.20
2023-04-25T20:55:43.535Z,2.40
2023-04-25T21:00:46.576Z,3.30
2023-04-25T21:05:47.920Z,3.50
2023-04-25T21:10:49.395Z,3.10
2023-04-25T21:15:50.914Z,3.50
2023-04-25T21:20:52.571Z,2.93
2023-04-25T21:25:53.830Z,3.20
2023-04-25T21:30:55.224Z,2.90
2023-04-25T21:35:56.710Z,3.17
2023-04-25T21:40:58.526Z,4.10
2023-04-25T21:46:21.395Z,3.67
2023-04-25T21:51:22.134Z,3.70
2023-04-25T21:56:23.553Z,3.87
2023-04-25T22:01:26.104Z,4.07
2023-04-25T22:06:27.892Z,6.03
2023-04-25T22:11:29.304Z,4.93
2023-04-25T22:16:30.695Z,6.27
2023-04-25T22:21:32.196Z,5.70
2023-04-25T22:26:33.935Z,5.40
2023-04-25T22:31:35.100Z,5.57
2023-04-25T22:36:36.521Z,6.27
2023-04-25T22:41:38.158Z,5.73
2023-04-25T22:46:39.818Z,5.23
2023-04-25T22:51:41.559Z,5.33
2023-04-25T22:56:43.279Z,5.03
2023-04-25T23:01:44.632Z,4.77
2023-04-25T23:06:46.015Z,5.30
2023-04-25T23:11:47.558Z,6.03
2023-04-25T23:16:49.188Z,5.50
2023-04-25T23:21:51.101Z,6.87
2023-04-25T23:26:52.390Z,6.10
2023-04-25T23:31:53.581Z,9.27
2023-04-25T23:36:55.033Z,9.57
2023-04-25T23:41:57.088Z,9.77
2023-04-25T23:46:58.448Z,7.83
2023-04-25T23:51:59.952Z,7.37
2023-04-25T23:57:03.678Z,8.17
